Time;durP1;ratioP1;P1;durP2;ratioP2;P2;SDS_P1;SDS_P2;PMS_P1;PMS_P2;Temp;Humidity;BMP_temperature;BMP_pressure;BME280_temperature;BME280_humidity;BME280_pressure;Samples;Min_cycle;Max_cycle;Signal;HPM_P1;HPM_P2
2021/03/03 00:02:22;;;;;;;39.95;17.98;;;;;;;0.26;100.00;101252.06;1726813;82;21114;-87
2021/03/03 00:05:18;;;;;;;39.27;18.95;;;;;;;0.27;100.00;101243.92;1748233;80;21222;-87
2021/03/03 00:08:12;;;;;;;37.88;18.60;;;;;;;0.26;100.00;101253.34;1721161;82;21122;-88
2021/03/03 00:14:43;;;;;;;40.67;20.62;;;;;;;0.26;100.00;101255.91;1754517;80;22272;-87
2021/03/03 00:17:34;;;;;;;48.40;26.23;;;;;;;0.25;100.00;101256.78;1722414;81;21102;-87
2021/03/03 00:20:04;;;;;;;55.10;27.02;;;;;;;0.23;100.00;101253.85;1753494;80;21196;-87
2021/03/03 00:22:53;;;;;;;62.15;32.17;;;;;;;0.21;100.00;101252.58;1755713;80;21216;-87
2021/03/03 00:25:21;;;;;;;55.25;29.10;;;;;;;0.22;100.00;101250.42;1724546;80;21228;-87
2021/03/03 00:31:40;;;;;;;36.10;19.87;;;;;;;0.20;100.00;101248.33;1729941;81;21155;-87
2021/03/03 00:38:13;;;;;;;32.23;17.07;;;;;;;0.23;100.00;101244.44;1694028;83;21205;-87
2021/03/03 00:40:41;;;;;;;30.97;16.02;;;;;;;0.24;100.00;101242.73;1717374;83;21250;-87
2021/03/03 00:43:32;;;;;;;32.65;17.80;;;;;;;0.24;100.00;101247.41;1712742;83;21578;-87
2021/03/03 00:46:36;;;;;;;35.05;16.70;;;;;;;0.27;100.00;101248.62;1728675;81;21190;-86
2021/03/03 00:49:47;;;;;;;30.20;15.68;;;;;;;0.29;100.00;101252.42;1752728;81;21149;-86
2021/03/03 00:52:15;;;;;;;29.27;13.65;;;;;;;0.31;100.00;101251.97;1782657;80;21134;-87
2021/03/03 00:54:44;;;;;;;32.23;15.95;;;;;;;0.31;100.00;101248.95;1739839;82;21157;-86
2021/03/03 00:57:12;;;;;;;31.97;17.57;;;;;;;0.33;100.00;101248.08;1736010;82;22306;-87
2021/03/03 00:59:47;;;;;;;30.05;16.75;;;;;;;0.33;100.00;101252.75;1760605;80;21179;-92
2021/03/03 01:06:48;;;;;;;32.58;14.80;;;;;;;0.36;100.00;101262.11;1751533;80;21258;-92
2021/03/03 01:09:17;;;;;;;33.38;15.65;;;;;;;0.36;100.00;101257.81;1721370;82;21154;-92
2021/03/03 01:15:32;;;;;;;30.00;16.30;;;;;;;0.37;100.00;101261.20;1733343;80;21145;-91
2021/03/03 01:18:01;;;;;;;28.77;15.03;;;;;;;0.38;100.00;101271.87;1743295;81;21229;-93
2021/03/03 01:20:55;;;;;;;31.45;16.65;;;;;;;0.38;100.00;101265.05;1701196;81;21200;-91
2021/03/03 01:23:23;;;;;;;26.02;14.87;;;;;;;0.40;100.00;101272.69;1693801;84;22203;-89
2021/03/03 01:25:51;;;;;;;29.10;15.95;;;;;;;0.42;100.00;101273.50;1691541;84;21382;-89
2021/03/03 01:28:19;;;;;;;24.55;13.20;;;;;;;0.44;100.00;101273.87;1722748;82;21172;-89
2021/03/03 01:30:49;;;;;;;25.75;14.10;;;;;;;0.47;100.00;101278.08;1720637;82;21636;-89
2021/03/03 01:33:28;;;;;;;23.15;13.03;;;;;;;0.47;100.00;101278.08;1718715;82;21625;-88
2021/03/03 01:35:57;;;;;;;28.02;14.98;;;;;;;0.48;100.00;101288.73;1715901;82;21618;-90
2021/03/03 01:38:25;;;;;;;27.45;14.15;;;;;;;0.48;100.00;101291.75;1712027;83;21231;-90
2021/03/03 01:40:56;;;;;;;25.90;14.07;;;;;;;0.47;100.00;101290.89;1718313;81;21685;-90
2021/03/03 01:43:24;;;;;;;29.75;15.10;;;;;;;0.48;100.00;101295.59;1712866;82;21183;-90
2021/03/03 01:45:54;;;;;;;32.20;16.65;;;;;;;0.48;100.00;101310.52;1713967;82;21142;-90
2021/03/03 01:48:36;;;;;;;26.48;14.47;;;;;;;0.49;100.00;101298.11;1721003;83;21131;-90
2021/03/03 01:51:06;;;;;;;25.72;13.10;;;;;;;0.47;100.00;101296.02;1719956;81;21351;-90
2021/03/03 01:53:34;;;;;;;28.23;15.20;;;;;;;0.46;100.00;101307.14;1717965;82;21159;-89
2021/03/03 01:56:02;;;;;;;30.17;14.80;;;;;;;0.46;100.00;101305.44;1721455;83;21147;-89
2021/03/03 01:58:30;;;;;;;27.62;14.50;;;;;;;0.45;100.00;101304.16;1721205;82;21119;-89
2021/03/03 02:01:00;;;;;;;29.57;13.78;;;;;;;0.43;100.00;101302.92;1718582;82;21598;-90
2021/03/03 02:03:28;;;;;;;21.87;11.70;;;;;;;0.39;100.00;101309.43;1713273;82;22272;-89
2021/03/03 02:06:01;;;;;;;30.05;14.63;;;;;;;0.35;100.00;101318.91;1692989;83;21172;-90
2021/03/03 02:08:38;;;;;;;25.50;11.10;;;;;;;0.34;100.00;101311.26;1687129;84;21489;-89
2021/03/03 02:11:20;;;;;;;26.40;14.60;;;;;;;0.29;100.00;101316.02;1681071;83;21215;-90
2021/03/03 02:13:59;;;;;;;24.12;13.95;;;;;;;0.24;100.00;101319.13;1690835;84;21192;-89
2021/03/03 02:16:28;;;;;;;26.00;14.18;;;;;;;0.21;100.00;101324.76;1700281;81;21352;-90
2021/03/03 02:18:59;;;;;;;24.87;13.62;;;;;;;0.19;100.00;101329.06;1738640;80;21218;-90
2021/03/03 02:25:36;;;;;;;26.00;13.20;;;;;;;0.11;100.00;101334.36;1728041;81;21636;-87
2021/03/03 02:38:57;;;;;;;23.50;11.68;;;;;;;-0.12;100.00;101339.46;1698438;83;21566;-86
2021/03/03 02:49:22;;;;;;;44.08;14.98;;;;;;;-0.13;100.00;101357.42;1780605;79;21074;-86
2021/03/03 02:52:04;;;;;;;49.42;14.05;;;;;;;-0.13;100.00;101366.38;1777515;80;21237;-88
2021/03/03 02:58:39;;;;;;;40.17;14.87;;;;;;;-0.13;100.00;101374.06;1723390;82;21228;-87
2021/03/03 03:01:36;;;;;;;35.15;14.18;;;;;;;-0.14;100.00;101371.95;1677609;84;21792;-88
2021/03/03 03:04:46;;;;;;;30.07;16.00;;;;;;;-0.10;100.00;101372.29;1798826;77;38254;-86
2021/03/03 03:07:59;;;;;;;25.15;13.83;;;;;;;-0.14;100.00;101373.23;1813548;78;21153;-87
2021/03/03 03:11:15;;;;;;;28.12;13.72;;;;;;;-0.10;100.00;101379.14;1811484;79;20977;-87
2021/03/03 03:14:29;;;;;;;26.75;12.53;;;;;;;-0.10;100.00;101390.66;1840668;77;21211;-86
2021/03/03 03:17:00;;;;;;;22.90;10.63;;;;;;;-0.11;100.00;101383.84;1840614;77;21175;-87
2021/03/03 03:19:41;;;;;;;21.70;11.22;;;;;;;-0.11;100.00;101388.52;1840709;78;21119;-87
2021/03/03 03:22:18;;;;;;;;;;;;;;;-0.10;100.00;101388.93;1841359;78;21155;-88
2021/03/03 03:24:46;;;;;;;22.05;10.65;;;;;;;-0.12;100.00;101393.67;1840951;78;22233;-87
2021/03/03 03:27:16;;;;;;;20.17;11.90;;;;;;;-0.16;100.00;101396.28;1840651;77;21131;-88
2021/03/03 03:29:47;;;;;;;22.02;10.45;;;;;;;-0.16;100.00;101390.33;1840704;77;21104;-87
2021/03/03 03:32:20;;;;;;;20.12;9.30;;;;;;;-0.19;100.00;101405.31;1808185;79;21151;-87
2021/03/03 03:35:17;;;;;;;19.80;10.45;;;;;;;-0.19;100.00;101410.85;1811547;79;21571;-87
2021/03/03 03:37:51;;;;;;;20.90;11.00;;;;;;;-0.20;100.00;101409.19;1840810;78;22351;-87
2021/03/03 03:43:48;;;;;;;17.85;10.10;;;;;;;-0.23;100.00;101416.91;1773591;80;21171;-86
2021/03/03 03:46:47;;;;;;;17.00;9.48;;;;;;;-0.24;100.00;101421.62;1807617;79;21091;-86
2021/03/03 03:49:18;;;;;;;17.23;10.03;;;;;;;-0.23;100.00;101436.11;1807686;79;21065;-86
2021/03/03 03:51:46;;;;;;;15.45;8.30;;;;;;;-0.23;100.00;101433.55;1787639;79;21430;-87
2021/03/03 03:54:14;;;;;;;14.25;7.87;;;;;;;-0.23;100.00;101440.78;1807523;79;21553;-87
2021/03/03 03:56:44;;;;;;;13.35;8.25;;;;;;;-0.19;100.00;101433.89;1807630;79;21156;-87
2021/03/03 03:59:12;;;;;;;18.80;8.40;;;;;;;-0.21;100.00;101436.48;1807674;79;21139;-86
2021/03/03 04:01:40;;;;;;;17.67;9.35;;;;;;;-0.21;100.00;101435.66;1807650;79;21135;-87
2021/03/03 04:04:08;;;;;;;16.00;8.80;;;;;;;-0.21;100.00;101439.50;1811308;79;22129;-87
2021/03/03 04:06:36;;;;;;;17.07;9.93;;;;;;;-0.20;100.00;101438.19;1813243;79;21120;-87
2021/03/03 04:09:05;;;;;;;17.23;9.40;;;;;;;-0.18;100.00;101443.27;1792896;79;21075;-87
2021/03/03 04:15:25;;;;;;;14.50;7.47;;;;;;;-0.20;100.00;101454.82;1781118;80;21171;-86
2021/03/03 04:17:54;;;;;;;16.48;8.45;;;;;;;-0.23;100.00;101451.47;1790175;79;21360;-87
2021/03/03 04:20:26;;;;;;;12.70;8.10;;;;;;;-0.25;100.00;101454.48;1794355;79;21163;-85
2021/03/03 04:22:54;;;;;;;14.20;7.83;;;;;;;-0.26;100.00;101457.48;1812889;79;21108;-85
2021/03/03 04:25:50;;;;;;;11.73;6.37;;;;;;;-0.28;100.00;101464.34;1803329;79;21659;-86
2021/03/03 04:32:09;;;;;;;15.88;7.65;;;;;;;-0.25;100.00;101463.44;1780070;79;21582;-86
2021/03/03 04:39:29;;;;;;;12.85;8.08;;;;;;;-0.30;100.00;101478.88;1785529;79;21151;-87
2021/03/03 04:42:03;;;;;;;16.97;10.18;;;;;;;-0.32;100.00;101484.02;1809563;79;21084;-86
2021/03/03 04:44:35;;;;;;;18.25;9.73;;;;;;;-0.31;100.00;101495.09;1782992;79;21691;-88
2021/03/03 04:47:03;;;;;;;22.32;10.08;;;;;;;-0.28;100.00;101503.19;1775692;80;21390;-88
2021/03/03 04:49:32;;;;;;;19.12;10.35;;;;;;;-0.28;100.00;101504.47;1775563;80;21227;-88
2021/03/03 04:52:01;;;;;;;20.23;10.35;;;;;;;-0.29;100.00;101520.24;1783099;79;21214;-89
2021/03/03 04:58:51;;;;;;;21.07;10.80;;;;;;;-0.22;100.00;101522.28;1809837;78;21132;-87
2021/03/03 05:12:24;;;;;;;17.37;9.63;;;;;;;-0.01;100.00;101541.59;1774163;79;21128;-88
2021/03/03 05:14:52;;;;;;;18.42;9.48;;;;;;;0.04;100.00;101548.75;1770279;79;21211;-89
2021/03/03 05:17:20;;;;;;;18.05;10.30;;;;;;;0.07;100.00;101551.27;1785773;79;21539;-87
2021/03/03 05:19:49;;;;;;;16.02;9.58;;;;;;;0.13;100.00;101556.70;1791750;79;21159;-88
2021/03/03 05:22:17;;;;;;;18.98;8.80;;;;;;;0.17;100.00;101558.78;1775191;79;21504;-88
2021/03/03 05:24:45;;;;;;;15.13;8.03;;;;;;;0.22;100.00;101557.84;1776655;79;21163;-87
2021/03/03 05:27:13;;;;;;;17.00;8.95;;;;;;;0.27;100.00;101559.91;1776604;80;21155;-87
2021/03/03 05:29:41;;;;;;;11.48;5.78;;;;;;;0.33;100.00;101576.03;1770051;79;22205;-88
2021/03/03 05:32:09;;;;;;;13.72;7.33;;;;;;;0.37;100.00;101575.09;1772007;80;21207;-88
2021/03/03 05:34:37;;;;;;;16.10;6.80;;;;;;;0.41;100.00;101575.47;1771087;79;21584;-88
2021/03/03 05:37:05;;;;;;;13.15;5.58;;;;;;;0.45;100.00;101570.69;1767019;79;21088;-88
2021/03/03 05:39:33;;;;;;;12.80;7.58;;;;;;;0.49;100.00;101571.06;1774505;80;21144;-88
2021/03/03 05:42:03;;;;;;;12.63;5.72;;;;;;;0.55;100.00;101570.11;1764604;81;21369;-88
2021/03/03 05:44:32;;;;;;;12.98;6.85;;;;;;;0.59;100.00;101572.59;1771288;79;22039;-88
2021/03/03 05:47:02;;;;;;;14.53;7.47;;;;;;;0.62;100.00;101571.69;1783101;79;21591;-88
2021/03/03 05:49:34;;;;;;;11.83;7.15;;;;;;;0.66;100.00;101581.00;1794918;79;21080;-88
2021/03/03 05:52:03;;;;;;;15.15;8.23;;;;;;;0.69;100.00;101587.36;1776598;79;21132;-88
2021/03/03 05:54:31;;;;;;;13.80;7.72;;;;;;;0.75;100.00;101595.39;1775061;79;22284;-88
2021/03/03 05:56:59;;;;;;;20.92;6.97;;;;;;;0.81;100.00;101602.95;1771707;79;21156;-87
2021/03/03 05:59:30;;;;;;;9.95;6.55;;;;;;;0.84;100.00;101604.62;1750242;79;21199;-88
2021/03/03 06:01:59;;;;;;;11.03;5.70;;;;;;;0.89;100.00;101611.36;1760804;81;21191;-87
2021/03/03 06:04:27;;;;;;;12.78;6.55;;;;;;;0.93;100.00;101618.11;1775021;80;21582;-87
2021/03/03 06:06:56;;;;;;;14.47;7.95;;;;;;;0.98;100.00;101605.64;1780692;80;21202;-87
2021/03/03 06:09:24;;;;;;;18.70;8.38;;;;;;;1.02;100.00;101616.23;1764423;80;21576;-87
2021/03/03 06:11:55;;;;;;;13.20;6.47;;;;;;;1.06;100.00;101615.33;1787680;79;21198;-88
2021/03/03 06:14:23;;;;;;;15.93;8.23;;;;;;;1.10;100.00;101627.20;1779120;79;21096;-88
2021/03/03 06:16:54;;;;;;;10.00;6.25;;;;;;;1.12;100.00;101625.45;1777469;79;21072;-89
2021/03/03 06:19:25;;;;;;;9.37;5.90;;;;;;;1.13;100.00;101625.88;1778025;79;21538;-89
2021/03/03 06:21:54;;;;;;;12.75;7.08;;;;;;;1.14;100.00;101624.14;1752628;80;21120;-89
2021/03/03 06:24:28;;;;;;;12.60;6.67;;;;;;;1.18;100.00;101633.03;1780885;80;21150;-90
2021/03/03 06:26:59;;;;;;;13.25;5.83;;;;;;;1.24;100.00;101626.94;1762952;80;21135;-89
2021/03/03 06:29:31;;;;;;;9.37;5.30;;;;;;;1.28;100.00;101624.73;1764311;80;21123;-89
2021/03/03 06:32:04;;;;;;;12.95;6.60;;;;;;;1.34;100.00;101655.41;1769195;80;21372;-88
2021/03/03 06:34:34;;;;;;;11.40;7.08;;;;;;;1.37;100.00;101648.07;1780915;79;21187;-89
2021/03/03 06:37:04;;;;;;;15.32;8.55;;;;;;;1.42;100.00;101635.98;1775922;80;21167;-89
2021/03/03 06:39:36;;;;;;;;;;;;;;;1.47;100.00;101632.04;1796359;79;21179;-88
2021/03/03 06:42:09;;;;;;;10.00;6.97;;;;;;;1.54;100.00;101636.16;1781881;79;20219;-88
2021/03/03 06:44:55;;;;;;;12.15;6.92;;;;;;;1.58;100.00;101642.48;1771448;80;21374;-89
2021/03/03 06:47:25;;;;;;;12.28;7.85;;;;;;;1.61;100.00;101635.61;1761550;80;21648;-89
2021/03/03 06:49:59;;;;;;;11.78;6.70;;;;;;;1.62;100.00;101642.44;1750247;82;21147;-88
2021/03/03 06:52:39;;;;;;;10.72;5.28;;;;;;;1.64;100.00;101639.41;1802055;79;21155;-87
2021/03/03 06:55:09;;;;;;;12.13;7.67;;;;;;;1.64;100.00;101641.97;1778538;80;21166;-89
2021/03/03 06:57:37;;;;;;;10.93;7.55;;;;;;;1.68;100.00;101643.13;1748602;80;21306;-88
2021/03/03 07:00:09;;;;;;;12.20;7.22;;;;;;;1.73;100.00;101641.75;1788957;78;21520;-88
2021/03/03 07:02:38;;;;;;;13.25;8.15;;;;;;;1.72;100.00;101640.92;1761675;80;21155;-88
2021/03/03 07:05:11;;;;;;;15.75;9.53;;;;;;;1.69;100.00;101631.98;1778920;80;21091;-88
2021/03/03 07:07:39;;;;;;;10.72;6.62;;;;;;;1.68;100.00;101636.71;1780934;80;21166;-88
2021/03/03 07:10:09;;;;;;;22.15;12.25;;;;;;;1.70;100.00;101636.70;1748689;80;22389;-88
2021/03/03 07:12:47;;;;;;;16.37;8.93;;;;;;;1.78;100.00;101634.81;1777083;80;21080;-89
2021/03/03 07:15:15;;;;;;;12.20;8.08;;;;;;;1.82;100.00;101642.84;1750549;80;21207;-89
2021/03/03 07:17:44;;;;;;;14.58;8.20;;;;;;;1.82;100.00;101640.27;1757954;80;21063;-89
2021/03/03 07:20:16;;;;;;;14.60;8.33;;;;;;;1.88;100.00;101641.41;1778026;80;21111;-88
2021/03/03 07:22:49;;;;;;;15.15;7.80;;;;;;;2.01;100.00;101632.16;1783834;79;21202;-89
2021/03/03 07:25:20;;;;;;;16.77;8.10;;;;;;;2.09;100.00;101644.39;1784137;79;21131;-89
2021/03/03 07:27:49;;;;;;;11.90;7.42;;;;;;;2.10;100.00;101638.38;1756817;80;26639;-89
2021/03/03 07:30:22;;;;;;;11.40;7.85;;;;;;;2.12;100.00;101641.77;1752873;79;21152;-88
2021/03/03 07:32:51;;;;;;;13.48;7.87;;;;;;;2.12;100.00;101640.48;1798319;79;21484;-88
2021/03/03 07:35:22;;;;;;;9.95;6.05;;;;;;;2.15;100.00;101631.39;1797913;79;21285;-88
2021/03/03 07:37:54;;;;;;;10.70;6.53;;;;;;;2.25;100.00;101650.00;1796695;79;21574;-89
2021/03/03 07:40:28;;;;;;;12.93;8.53;;;;;;;2.36;100.00;101648.48;1777078;80;21198;-89
2021/03/03 07:43:00;;;;;;;10.32;6.58;;;;;;;2.44;100.00;101646.57;1777651;79;21091;-89
2021/03/03 07:45:35;;;;;;;10.65;6.45;;;;;;;2.49;100.00;101646.43;1779928;79;21123;-89
2021/03/03 07:48:07;;;;;;;13.70;6.30;;;;;;;2.53;100.00;101636.03;1747433;80;21217;-88
2021/03/03 07:50:36;;;;;;;11.53;7.28;;;;;;;2.58;100.00;101653.09;1775774;80;21182;-89
2021/03/03 07:53:05;;;;;;;11.12;6.62;;;;;;;2.64;100.00;101636.22;1783440;80;21506;-88
2021/03/03 07:55:34;;;;;;;13.38;6.72;;;;;;;2.75;100.00;101639.37;1760535;80;21187;-88
2021/03/03 07:58:06;;;;;;;11.88;6.53;;;;;;;2.81;100.00;101637.91;1777319;79;21118;-90
2021/03/03 08:00:39;;;;;;;8.53;4.30;;;;;;;2.90;100.00;101630.38;1796240;79;21461;-89
2021/03/03 08:03:07;;;;;;;13.15;7.72;;;;;;;3.02;100.00;101635.64;1772529;80;21270;-89
2021/03/03 08:05:39;;;;;;;15.18;7.10;;;;;;;3.05;100.00;101643.29;1768234;79;21160;-89
2021/03/03 08:08:24;;;;;;;10.72;6.15;;;;;;;3.00;100.00;101644.70;1771536;79;21548;-89
2021/03/03 08:11:05;;;;;;;12.40;6.50;;;;;;;3.00;100.00;101651.59;1767830;81;21135;-89
2021/03/03 08:16:19;;;;;;;11.68;6.40;;;;;;;3.01;100.00;101662.25;1879149;75;22356;-87
2021/03/03 08:18:56;;;;;;;9.98;5.62;;;;;;;2.99;100.00;101649.89;1834173;77;21535;-88
2021/03/03 08:21:28;;;;;;;10.75;4.78;;;;;;;3.02;100.00;101651.08;1848424;77;21361;-88
2021/03/03 08:24:00;;;;;;;;;;;;;;;3.16;100.00;101671.30;1851243;77;21483;-89
2021/03/03 08:26:36;;;;;;;8.80;5.60;;;;;;;3.18;100.00;101646.80;1848604;77;20410;-88
2021/03/03 08:29:23;;;;;;;7.42;4.87;;;;;;;3.11;100.00;101658.56;1848168;77;21506;-88
2021/03/03 08:31:53;;;;;;;8.78;5.97;;;;;;;3.10;100.00;101679.20;1844938;77;21550;-87
2021/03/03 08:34:22;;;;;;;14.65;11.38;;;;;;;3.14;100.00;101670.50;1848391;77;22300;-87
2021/03/03 08:36:54;;;;;;;14.60;7.65;;;;;;;3.14;100.00;101677.80;1840451;77;21056;-87
2021/03/03 08:39:25;;;;;;;12.98;7.60;;;;;;;3.10;100.00;101679.20;1820676;77;21151;-87
2021/03/03 08:41:53;;;;;;;8.45;5.35;;;;;;;3.10;100.00;101685.63;1822024;77;21586;-88
2021/03/03 08:44:22;;;;;;;7.80;5.30;;;;;;;3.16;100.00;101682.89;1846443;77;21549;-88
2021/03/03 08:46:52;;;;;;;7.22;4.45;;;;;;;3.26;100.00;101679.19;1840867;77;21555;-88
2021/03/03 08:49:25;;;;;;;7.40;5.20;;;;;;;3.36;100.00;101677.65;1848511;77;21198;-88
2021/03/03 08:52:10;;;;;;;9.43;4.85;;;;;;;3.48;100.00;101689.71;1840565;77;21131;-88
2021/03/03 08:54:46;;;;;;;7.62;4.70;;;;;;;3.54;100.00;101687.87;1817533;78;21143;-87
2021/03/03 08:57:32;;;;;;;7.83;4.65;;;;;;;3.57;100.00;101692.48;1828071;77;21123;-89
2021/03/03 09:00:00;;;;;;;7.33;4.65;;;;;;;3.63;100.00;101689.73;1823444;77;21366;-89
2021/03/03 09:02:38;;;;;;;6.90;4.23;;;;;;;3.78;100.00;101686.30;1836517;77;21142;-87
2021/03/03 09:05:10;;;;;;;6.60;4.62;;;;;;;3.74;100.00;101691.99;1823533;77;21167;-88
2021/03/03 09:07:38;;;;;;;5.95;3.67;;;;;;;3.69;100.00;101690.00;1846307;77;21051;-87
2021/03/03 09:10:15;;;;;;;6.10;3.85;;;;;;;3.63;100.00;101700.03;1840513;77;21146;-88
2021/03/03 09:12:46;;;;;;;5.22;3.15;;;;;;;3.60;100.00;101701.86;1848552;77;21329;-88
2021/03/03 09:15:16;;;;;;;8.30;3.87;;;;;;;3.52;100.00;101711.11;1844249;77;21221;-88
2021/03/03 09:17:45;;;;;;;5.92;3.50;;;;;;;3.58;100.00;101698.47;1846794;77;21147;-88
2021/03/03 09:20:21;;;;;;;4.75;3.20;;;;;;;3.83;100.00;101706.78;1848412;77;21556;-88
2021/03/03 09:22:49;;;;;;;5.12;3.27;;;;;;;4.05;100.00;101714.73;1848572;77;21432;-88
2021/03/03 09:25:21;;;;;;;6.45;3.77;;;;;;;4.19;100.00;101695.81;1839038;77;21417;-88
2021/03/03 09:27:56;;;;;;;4.70;3.20;;;;;;;4.37;100.00;101702.12;1847834;77;21186;-88
2021/03/03 09:30:28;;;;;;;4.10;3.00;;;;;;;4.46;100.00;101707.45;1826935;77;21131;-88
2021/03/03 09:32:56;;;;;;;4.28;2.87;;;;;;;4.57;100.00;101707.92;1828341;77;21147;-88
2021/03/03 09:35:30;;;;;;;7.45;3.02;;;;;;;4.64;100.00;101710.33;1820236;77;21199;-89
2021/03/03 09:37:59;;;;;;;5.78;3.12;;;;;;;4.68;100.00;101699.86;1820370;77;22118;-89
2021/03/03 09:40:30;;;;;;;3.83;2.52;;;;;;;4.68;100.00;101708.89;1820208;78;21120;-88
2021/03/03 09:43:02;;;;;;;4.95;2.95;;;;;;;4.61;100.00;101731.89;1832482;77;21182;-88
2021/03/03 09:45:30;;;;;;;5.53;3.05;;;;;;;4.57;100.00;101712.26;1848023;77;21155;-88
2021/03/03 09:47:59;;;;;;;4.15;1.90;;;;;;;4.60;100.00;101713.46;1847838;77;21526;-89
2021/03/03 09:50:35;;;;;;;4.62;3.10;;;;;;;4.70;100.00;101718.70;1847617;77;21064;-89
2021/03/03 09:53:04;;;;;;;3.55;2.70;;;;;;;4.70;100.00;101732.89;1834143;77;21179;-88
2021/03/03 09:55:35;;;;;;;4.65;2.58;;;;;;;4.60;100.00;101728.94;1825103;77;21627;-89
2021/03/03 09:58:04;;;;;;;6.40;2.20;;;;;;;4.49;100.00;101736.99;1830888;77;21139;-87
2021/03/03 10:00:42;;;;;;;4.40;2.30;;;;;;;4.37;98.75;101727.91;1820056;78;21060;-87
2021/03/03 10:03:14;;;;;;;4.95;2.70;;;;;;;4.49;100.00;101734.87;1819955;77;21364;-87
2021/03/03 10:05:43;;;;;;;3.75;2.20;;;;;;;4.68;100.00;101730.83;1795134;79;21567;-86
2021/03/03 10:08:13;;;;;;;5.15;2.15;;;;;;;4.85;100.00;101720.36;1828315;77;21147;-88
2021/03/03 10:10:46;;;;;;;3.50;1.90;;;;;;;4.97;100.00;101713.95;1830647;77;21142;-86
2021/03/03 10:13:21;;;;;;;2.62;1.55;;;;;;;4.96;93.28;101723.91;1838067;77;21186;-87
2021/03/03 10:15:50;;;;;;;2.40;2.20;;;;;;;4.90;94.14;101722.37;1849537;77;22292;-87
2021/03/03 10:18:18;;;;;;;5.60;2.20;;;;;;;4.87;95.06;101710.84;1850984;77;21142;-87
2021/03/03 10:20:57;;;;;;;2.62;1.70;;;;;;;4.86;97.40;101714.31;1828731;77;21190;-87
2021/03/03 10:23:31;;;;;;;4.85;2.20;;;;;;;4.86;97.40;101714.31;1834993;77;21158;-87
2021/03/03 10:26:05;;;;;;;3.55;1.90;;;;;;;5.00;98.01;101701.81;1843789;77;21131;-88
2021/03/03 10:28:36;;;;;;;5.37;2.08;;;;;;;5.17;90.96;101719.72;1817628;78;21364;-89
2021/03/03 10:31:07;;;;;;;3.92;1.55;;;;;;;5.21;80.86;101722.14;1761917;80;21139;-88
2021/03/03 10:33:39;;;;;;;2.37;1.92;;;;;;;5.21;80.86;101722.14;1776306;80;21192;-88
2021/03/03 10:36:19;;;;;;;2.60;1.50;;;;;;;5.45;83.94;101714.88;1785980;80;21151;-88
2021/03/03 10:38:54;;;;;;;3.52;1.57;;;;;;;5.45;83.94;101714.88;1791319;80;21190;-87
2021/03/03 10:41:25;;;;;;;2.77;1.72;;;;;;;5.49;77.81;101721.18;1791315;80;22397;-86
2021/03/03 10:43:54;;;;;;;4.22;1.77;;;;;;;5.30;77.58;101716.27;1791409;80;21602;-86
2021/03/03 10:46:24;;;;;;;3.90;1.72;;;;;;;5.21;86.43;101722.14;1791356;80;21234;-86
2021/03/03 10:48:56;;;;;;;2.03;1.50;;;;;;;5.34;87.51;101716.09;1791588;80;21185;-86
2021/03/03 10:51:37;;;;;;;4.35;2.20;;;;;;;5.59;76.54;101717.80;1773133;80;21167;-88
2021/03/03 10:54:06;;;;;;;3.58;2.02;;;;;;;5.66;80.63;101717.14;1786063;80;21205;-88
2021/03/03 10:56:43;;;;;;;3.60;2.15;;;;;;;5.54;76.39;101708.09;1776397;80;21096;-88
2021/03/03 10:59:30;;;;;;;2.72;1.82;;;;;;;5.43;79.20;101724.42;1785945;80;21195;-88
2021/03/03 11:02:00;;;;;;;4.80;1.87;;;;;;;5.27;73.90;101719.80;1776336;80;21183;-88
2021/03/03 11:04:39;;;;;;;3.27;1.80;;;;;;;4.78;78.85;101723.62;1785952;80;21148;-88
2021/03/03 11:07:10;;;;;;;2.27;1.32;;;;;;;4.78;78.85;101723.62;1776295;80;21199;-88
2021/03/03 11:09:40;;;;;;;2.22;1.10;;;;;;;4.71;77.92;101729.88;1785867;80;21552;-88
2021/03/03 11:12:09;;;;;;;3.58;1.65;;;;;;;4.85;76.38;101738.44;1776351;80;21690;-88
2021/03/03 11:14:38;;;;;;;5.15;1.52;;;;;;;4.81;73.65;101721.37;1771895;80;21128;-88
2021/03/03 11:17:06;;;;;;;1.60;0.98;;;;;;;4.62;69.36;101736.62;1771699;80;21150;-88
2021/03/03 11:19:37;;;;;;;0.95;0.78;;;;;;;4.48;70.97;101745.66;1827857;77;21550;-88
2021/03/03 11:22:05;;;;;;;1.80;1.40;;;;;;;4.63;75.01;101744.77;1837910;77;21108;-88
2021/03/03 11:25:05;;;;;;;1.62;1.20;;;;;;;4.76;75.03;101729.73;1833054;77;21142;-89
2021/03/03 11:27:33;;;;;;;2.20;1.22;;;;;;;4.80;77.92;101723.12;1831578;77;21171;-88
2021/03/03 11:30:04;;;;;;;2.10;0.90;;;;;;;4.79;77.10;101725.31;1837948;77;21140;-88
2021/03/03 11:32:32;;;;;;;;;;;;;;;4.88;73.79;101724.14;1823073;78;21356;-88
2021/03/03 11:35:01;;;;;;;1.90;1.20;;;;;;;5.19;67.50;101733.42;1824371;77;20265;-89
2021/03/03 11:37:30;;;;;;;4.00;0.90;;;;;;;5.19;67.50;101733.42;1848328;77;21116;-88
2021/03/03 11:40:00;;;;;;;4.12;1.27;;;;;;;5.20;67.57;101728.23;1834343;77;21163;-89
2021/03/03 11:42:32;;;;;;;2.50;0.93;;;;;;;5.04;67.52;101733.06;1823409;76;21150;-88
2021/03/03 11:45:00;;;;;;;2.62;1.15;;;;;;;5.06;78.02;101734.30;1823888;76;21397;-88
2021/03/03 11:47:30;;;;;;;2.12;1.30;;;;;;;5.06;78.02;101734.30;1798931;78;21216;-88
2021/03/03 11:49:59;;;;;;;5.72;1.52;;;;;;;5.16;68.74;101735.67;1825961;77;21096;-88
2021/03/03 11:52:27;;;;;;;2.12;0.80;;;;;;;5.25;68.12;101740.12;1846944;77;21135;-87
2021/03/03 11:54:59;;;;;;;2.95;1.10;;;;;;;5.37;64.70;101741.84;1848306;77;21250;-90
2021/03/03 11:57:30;;;;;;;6.95;1.35;;;;;;;5.37;64.70;101741.84;1845115;76;21349;-88
2021/03/03 11:59:59;;;;;;;2.15;1.20;;;;;;;5.37;66.23;101754.75;1829496;77;21159;-90
2021/03/03 12:03:13;;;;;;;4.25;1.52;;;;;;;5.40;68.66;101747.80;1819430;78;21579;-90
2021/03/03 12:05:42;;;;;;;1.82;1.30;;;;;;;5.45;69.99;101751.87;1761590;80;21697;-90
2021/03/03 12:08:10;;;;;;;2.20;1.20;;;;;;;5.41;63.06;101754.66;1807699;78;21158;-90
2021/03/03 12:10:39;;;;;;;2.42;1.40;;;;;;;5.24;64.65;101747.47;1828763;78;21198;-90
2021/03/03 12:13:07;;;;;;;1.27;1.02;;;;;;;5.29;59.19;101756.76;1806712;79;21139;-90
2021/03/03 12:15:35;;;;;;;1.45;1.00;;;;;;;5.37;59.96;101756.05;1793900;79;21170;-90
2021/03/03 12:18:06;;;;;;;1.95;1.12;;;;;;;5.37;59.96;101756.05;1811893;79;21128;-90
2021/03/03 12:20:34;;;;;;;1.60;1.10;;;;;;;5.44;60.00;101758.41;1804847;79;21095;-90
2021/03/03 12:23:03;;;;;;;3.10;1.65;;;;;;;5.33;59.44;101759.61;1801528;79;21772;-90
2021/03/03 12:25:33;;;;;;;2.87;0.75;;;;;;;5.31;64.87;101757.98;1788660;79;21165;-89
2021/03/03 12:28:01;;;;;;;4.72;1.35;;;;;;;5.41;60.08;101790.82;1740901;80;21228;-89
2021/03/03 12:30:29;;;;;;;1.00;0.80;;;;;;;5.39;54.13;101788.27;1732671;81;21575;-90
2021/03/03 12:32:58;;;;;;;1.62;1.17;;;;;;;5.12;55.98;101783.17;1735583;81;21247;-89
2021/03/03 12:35:27;;;;;;;1.77;0.80;;;;;;;5.00;58.86;101767.64;1724859;82;21608;-89
2021/03/03 12:37:55;;;;;;;3.58;0.93;;;;;;;5.07;53.99;101773.42;1729986;81;21583;-89
2021/03/03 12:40:22;;;;;;;1.87;1.00;;;;;;;5.16;59.66;101775.70;1738598;81;21574;-90
2021/03/03 12:42:51;;;;;;;4.35;1.75;;;;;;;5.13;58.79;101773.67;1744556;81;21571;-89
2021/03/03 12:45:18;;;;;;;2.30;0.93;;;;;;;4.98;60.75;101774.58;1724904;82;21191;-89
2021/03/03 12:47:48;;;;;;;2.72;1.30;;;;;;;5.05;58.82;101779.08;1732639;81;21201;-89
2021/03/03 12:50:17;;;;;;;1.37;0.98;;;;;;;5.05;58.82;101779.08;1754864;81;21179;-89
2021/03/03 12:52:45;;;;;;;1.07;0.85;;;;;;;4.92;56.44;101781.24;1754914;81;21151;-89
2021/03/03 12:55:16;;;;;;;3.45;1.32;;;;;;;4.73;57.59;101791.29;1754956;81;21196;-89
2021/03/03 12:57:45;;;;;;;1.42;0.70;;;;;;;4.71;61.67;101777.16;1748159;81;21150;-89
2021/03/03 13:00:16;;;;;;;1.37;1.10;;;;;;;4.82;64.61;101784.55;1724930;82;21277;-89
2021/03/03 13:02:48;;;;;;;1.70;1.00;;;;;;;4.86;64.19;101784.86;1734507;81;21209;-89
2021/03/03 13:05:18;;;;;;;1.42;1.12;;;;;;;4.92;61.31;101783.83;1752320;81;21115;-89
2021/03/03 13:07:47;;;;;;;3.08;0.98;;;;;;;4.98;58.50;101777.16;1746931;81;21157;-89